Time;durP1;ratioP1;P1;durP2;ratioP2;P2;SDS_P1;SDS_P2;PMS_P1;PMS_P2;Temp;Humidity;BMP_temperature;BMP_pressure;BME280_temperature;BME280_humidity;BME280_pressure;Samples;Min_cycle;Max_cycle;Signal;HPM_P1;HPM_P2
2022/01/11 05:00:52;;;;;;;68.82;32.40;;;1.10;99.90;;;;;;5827948;22;91583;-73
2022/01/11 05:03:21;;;;;;;70.20;32.22;;;1.10;99.90;;;;;;4997356;28;89136;-74
2022/01/11 05:05:47;;;;;;;68.72;31.13;;;1.10;99.90;;;;;;4997636;28;89679;-73
2022/01/11 05:08:13;;;;;;;77.25;33.83;;;1.10;99.90;;;;;;4997723;28;89276;-73
2022/01/11 05:10:42;;;;;;;75.53;32.53;;;1.10;99.90;;;;;;4997537;28;89291;-73
2022/01/11 05:13:11;;;;;;;63.38;30.75;;;1.10;99.90;;;;;;4997159;28;89409;-73
2022/01/11 05:15:36;;;;;;;69.15;31.75;;;1.20;99.90;;;;;;4998284;28;89667;-73
2022/01/11 05:18:02;;;;;;;68.25;32.03;;;1.20;99.90;;;;;;4995841;28;89354;-73
2022/01/11 05:20:28;;;;;;;65.78;30.85;;;1.20;99.90;;;;;;4997052;28;90173;-73
2022/01/11 05:22:53;;;;;;;76.20;34.03;;;1.20;99.90;;;;;;4996761;28;90282;-73
2022/01/11 05:25:20;;;;;;;71.68;33.75;;;1.30;99.90;;;;;;4997165;28;89751;-73
2022/01/11 05:27:46;;;;;;;81.60;36.17;;;1.20;99.90;;;;;;4997471;28;89204;-74
2022/01/11 05:30:12;;;;;;;71.40;34.65;;;1.20;99.90;;;;;;4995481;28;90725;-74
2022/01/11 05:32:38;;;;;;;77.85;36.45;;;1.20;99.90;;;;;;4997378;28;89565;-74
2022/01/11 05:35:07;;;;;;;78.32;36.67;;;1.20;99.90;;;;;;4997175;28;89387;-74
2022/01/11 05:37:33;;;;;;;82.82;34.90;;;1.20;99.90;;;;;;4997478;28;89300;-75
2022/01/11 05:39:59;;;;;;;72.30;32.08;;;1.20;99.90;;;;;;4995758;28;89210;-73
2022/01/11 05:42:26;;;;;;;67.63;33.13;;;1.20;99.90;;;;;;4989924;28;89391;-74
2022/01/11 05:44:52;;;;;;;65.05;33.13;;;1.30;99.90;;;;;;4995453;28;92823;-73
2022/01/11 05:47:18;;;;;;;67.05;33.47;;;1.30;99.90;;;;;;4996876;28;90131;-73
2022/01/11 05:49:43;;;;;;;68.45;33.63;;;1.40;99.90;;;;;;4997085;28;90773;-73
2022/01/11 05:52:09;;;;;;;63.08;32.05;;;1.40;99.90;;;;;;4996357;28;89281;-73
2022/01/11 05:54:34;;;;;;;66.32;32.50;;;1.40;99.90;;;;;;4996305;28;90025;-73
2022/01/11 05:57:00;;;;;;;66.22;31.48;;;1.40;99.90;;;;;;4997415;28;89225;-73
2022/01/11 05:59:26;;;;;;;68.53;32.83;;;1.50;99.90;;;;;;4997265;28;89287;-76
2022/01/11 06:01:51;;;;;;;68.78;32.28;;;1.50;99.90;;;;;;4980936;28;91164;-73
2022/01/11 06:04:17;;;;;;;64.93;31.75;;;1.50;99.90;;;;;;4977321;28;88968;-73
2022/01/11 06:06:42;;;;;;;62.60;31.80;;;1.50;99.90;;;;;;4983643;28;89212;-73
2022/01/11 06:09:08;;;;;;;71.80;34.28;;;1.60;99.90;;;;;;4982713;28;89361;-73
2022/01/11 06:11:33;;;;;;;74.20;35.00;;;1.60;99.90;;;;;;4976489;28;91579;-73
2022/01/11 06:13:59;;;;;;;68.80;33.65;;;1.60;99.90;;;;;;4976177;28;91941;-72
2022/01/11 06:16:28;;;;;;;71.38;32.97;;;1.50;99.90;;;;;;4977092;28;89186;-75
2022/01/11 06:18:53;;;;;;;63.13;32.88;;;1.50;99.90;;;;;;4995386;28;91567;-74
2022/01/11 06:21:19;;;;;;;67.03;32.22;;;1.60;99.90;;;;;;4995434;28;90410;-75
2022/01/11 06:23:48;;;;;;;68.63;30.70;;;1.60;99.90;;;;;;4976563;28;89668;-75
2022/01/11 06:26:15;;;;;;;66.78;31.20;;;1.60;99.90;;;;;;4977125;28;89200;-75
2022/01/11 06:28:41;;;;;;;63.88;30.17;;;1.60;99.90;;;;;;4980810;28;89706;-75
2022/01/11 06:31:07;;;;;;;59.22;30.52;;;1.60;99.90;;;;;;4980194;28;90435;-75
2022/01/11 06:33:33;;;;;;;61.15;30.08;;;1.70;99.90;;;;;;4979965;28;89751;-75
2022/01/11 06:35:59;;;;;;;61.17;30.83;;;1.60;99.90;;;;;;4979779;28;90251;-75
2022/01/11 06:38:25;;;;;;;60.13;30.50;;;1.70;99.90;;;;;;4980791;28;90016;-75
2022/01/11 06:40:51;;;;;;;60.70;29.92;;;1.70;99.90;;;;;;4980084;28;89360;-74
2022/01/11 06:43:16;;;;;;;56.22;28.15;;;1.70;99.90;;;;;;4979735;28;89747;-75
2022/01/11 06:45:42;;;;;;;59.20;29.08;;;1.80;99.90;;;;;;4979941;28;89312;-74
2022/01/11 06:48:09;;;;;;;61.28;30.23;;;1.80;99.90;;;;;;4979864;28;90117;-74
2022/01/11 06:50:34;;;;;;;59.28;29.40;;;1.80;99.90;;;;;;4979694;28;90542;-74
2022/01/11 06:53:00;;;;;;;61.63;30.30;;;1.80;99.90;;;;;;4979814;28;89743;-74
2022/01/11 06:55:26;;;;;;;51.17;27.42;;;1.80;99.90;;;;;;4980231;28;89650;-74
2022/01/11 06:57:51;;;;;;;64.90;31.45;;;1.90;99.90;;;;;;4981089;28;90165;-74
2022/01/11 07:00:18;;;;;;;58.40;30.17;;;1.80;99.90;;;;;;4983162;28;90820;-74
2022/01/11 07:02:46;;;;;;;65.03;32.05;;;1.90;99.90;;;;;;4981434;28;93565;-75
2022/01/11 07:05:13;;;;;;;60.22;30.85;;;1.80;99.90;;;;;;4980565;28;89309;-75
2022/01/11 07:07:39;;;;;;;61.13;30.15;;;1.90;99.90;;;;;;4994277;28;89633;-74
2022/01/11 07:10:05;;;;;;;58.83;28.92;;;2.00;99.90;;;;;;4999936;28;89341;-74
2022/01/11 07:12:31;;;;;;;52.83;28.35;;;1.90;99.90;;;;;;4999052;28;90830;-75
2022/01/11 07:14:57;;;;;;;58.70;29.38;;;2.00;99.90;;;;;;5000170;28;89426;-74
2022/01/11 07:17:23;;;;;;;57.40;28.60;;;2.00;99.90;;;;;;5000008;28;88949;-74
2022/01/11 07:19:49;;;;;;;53.70;28.20;;;1.90;99.90;;;;;;4999759;28;89749;-74
2022/01/11 07:22:15;;;;;;;52.88;26.63;;;1.90;99.90;;;;;;4999094;28;89245;-74
2022/01/11 07:24:40;;;;;;;49.65;27.73;;;1.90;99.90;;;;;;4998860;28;90424;-74
2022/01/11 07:27:06;;;;;;;52.60;27.02;;;1.90;99.90;;;;;;4985950;28;90718;-74
2022/01/11 07:29:31;;;;;;;51.80;26.58;;;2.00;99.90;;;;;;4979953;28;90033;-75
2022/01/11 07:31:57;;;;;;;55.25;27.15;;;2.00;99.90;;;;;;4982356;28;89915;-75
2022/01/11 07:34:23;;;;;;;50.67;26.05;;;2.10;99.90;;;;;;4978946;28;89330;-75
2022/01/11 07:36:48;;;;;;;51.15;26.52;;;2.10;99.90;;;;;;4979918;28;89493;-75
2022/01/11 07:39:14;;;;;;;46.70;25.40;;;2.10;99.90;;;;;;4979148;28;90008;-75
2022/01/11 07:41:41;;;;;;;52.83;25.90;;;2.10;99.90;;;;;;4979741;28;90240;-74
2022/01/11 07:44:07;;;;;;;48.90;25.92;;;2.20;99.90;;;;;;4977730;28;89267;-75
2022/01/11 07:46:32;;;;;;;51.90;26.02;;;2.20;99.90;;;;;;4979939;28;89891;-76
2022/01/11 07:48:59;;;;;;;51.90;26.52;;;2.20;99.90;;;;;;4978593;28;91426;-75
2022/01/11 07:51:26;;;;;;;49.90;26.92;;;2.20;99.90;;;;;;4978659;28;90830;-75
2022/01/11 07:53:52;;;;;;;48.88;26.40;;;2.20;99.90;;;;;;4978617;28;89281;-75
2022/01/11 07:56:19;;;;;;;55.47;29.48;;;2.30;99.90;;;;;;4978970;28;90107;-76
2022/01/11 07:58:45;;;;;;;50.00;28.02;;;2.30;99.90;;;;;;4977598;28;92024;-74
2022/01/11 08:01:10;;;;;;;49.53;27.73;;;2.30;99.90;;;;;;4976773;28;92037;-74
2022/01/11 08:03:36;;;;;;;54.75;27.67;;;2.40;99.90;;;;;;4978722;28;89710;-75
2022/01/11 08:06:02;;;;;;;48.38;26.55;;;2.40;99.90;;;;;;4984163;28;89569;-74
2022/01/11 08:08:27;;;;;;;48.90;25.15;;;2.40;99.90;;;;;;4987929;28;89232;-74
2022/01/11 08:10:53;;;;;;;43.25;24.27;;;2.50;99.90;;;;;;4989530;28;89614;-74
2022/01/11 08:13:19;;;;;;;49.42;27.02;;;2.50;99.90;;;;;;4978394;28;90245;-74
2022/01/11 08:15:45;;;;;;;44.85;24.38;;;2.60;99.90;;;;;;4978960;28;89683;-75
2022/01/11 08:18:10;;;;;;;43.22;23.90;;;2.60;99.90;;;;;;4978530;28;89388;-74
2022/01/11 08:20:36;;;;;;;42.30;24.15;;;2.70;99.90;;;;;;4979684;28;89262;-74
2022/01/11 08:23:02;;;;;;;42.33;23.48;;;2.70;99.90;;;;;;4985744;28;89466;-74
2022/01/11 08:25:27;;;;;;;39.17;21.83;;;2.70;99.90;;;;;;4987278;28;93000;-74
2022/01/11 08:27:53;;;;;;;38.55;21.60;;;2.80;99.90;;;;;;4986194;28;90614;-74
2022/01/11 08:30:18;;;;;;;41.60;22.48;;;2.90;99.90;;;;;;4978875;28;88808;-74
2022/01/11 08:32:44;;;;;;;37.53;23.08;;;2.90;99.90;;;;;;4978346;28;89389;-75
2022/01/11 08:35:11;;;;;;;43.78;23.73;;;2.90;99.90;;;;;;4984518;28;89938;-74
2022/01/11 08:37:37;;;;;;;42.47;23.13;;;3.00;99.90;;;;;;4981748;28;93677;-75
2022/01/11 08:40:03;;;;;;;38.40;22.15;;;3.00;99.90;;;;;;4981876;28;90226;-76
2022/01/11 08:42:29;;;;;;;38.60;22.98;;;3.10;99.90;;;;;;4979292;28;89249;-75
2022/01/11 08:44:55;;;;;;;35.72;22.92;;;3.20;99.90;;;;;;4978663;28;89654;-74
2022/01/11 08:47:21;;;;;;;45.92;22.88;;;3.20;99.90;;;;;;4978098;28;89497;-75
2022/01/11 08:49:47;;;;;;;43.75;23.23;;;3.20;99.90;;;;;;4977544;28;89941;-77
2022/01/11 08:52:13;;;;;;;39.10;21.55;;;3.30;99.90;;;;;;4978461;28;89358;-75
2022/01/11 08:54:39;;;;;;;39.63;22.27;;;3.30;99.90;;;;;;4978858;28;89018;-75
2022/01/11 08:57:06;;;;;;;41.17;22.80;;;3.40;99.90;;;;;;4978279;28;89188;-75
2022/01/11 08:59:31;;;;;;;36.13;21.98;;;3.50;99.90;;;;;;4978471;28;89588;-74
2022/01/11 09:01:59;;;;;;;37.13;20.88;;;3.60;99.90;;;;;;4979705;28;90067;-75
2022/01/11 09:04:29;;;;;;;36.22;20.13;;;3.60;99.90;;;;;;4987179;28;89644;-76
2022/01/11 09:06:57;;;;;;;39.65;20.67;;;3.70;99.90;;;;;;4995129;28;89874;-76
2022/01/11 09:09:24;;;;;;;36.42;20.38;;;3.70;99.90;;;;;;4998270;28;89438;-75
2022/01/11 09:11:51;;;;;;;32.67;19.83;;;3.80;99.90;;;;;;4998399;28;89275;-75
2022/01/11 09:14:17;;;;;;;36.10;20.13;;;3.80;99.90;;;;;;4998614;28;89349;-79
2022/01/11 09:16:43;;;;;;;35.97;21.00;;;3.90;99.90;;;;;;4999028;28;89219;-78
2022/01/11 09:19:09;;;;;;;35.53;19.27;;;3.90;99.90;;;;;;4998777;28;89941;-76
2022/01/11 09:21:35;;;;;;;35.45;19.70;;;3.90;99.90;;;;;;4994638;28;89226;-76
2022/01/11 09:24:02;;;;;;;38.72;19.90;;;4.00;99.90;;;;;;4999604;28;90171;-75
2022/01/11 09:26:27;;;;;;;33.65;20.08;;;3.90;99.90;;;;;;5004507;28;90424;-76
2022/01/11 09:28:53;;;;;;;30.98;19.73;;;4.00;99.90;;;;;;4997098;28;89670;-76
2022/01/11 09:31:18;;;;;;;32.95;18.55;;;4.10;99.90;;;;;;4986165;28;89721;-75
2022/01/11 09:33:44;;;;;;;34.53;18.98;;;4.10;99.90;;;;;;4987591;28;89716;-75
2022/01/11 09:36:10;;;;;;;39.13;21.00;;;4.10;99.90;;;;;;4987291;28;89363;-75
2022/01/11 09:38:35;;;;;;;31.73;19.92;;;4.10;99.90;;;;;;4991166;28;89789;-75
2022/01/11 09:41:01;;;;;;;34.92;19.25;;;4.10;99.90;;;;;;4989328;28;89349;-76
2022/01/11 09:43:28;;;;;;;32.70;19.25;;;4.10;99.90;;;;;;4993915;28;88875;-75
2022/01/11 09:45:55;;;;;;;33.50;20.08;;;4.20;99.90;;;;;;4996691;28;89689;-75
2022/01/11 09:48:23;;;;;;;30.63;18.60;;;4.20;99.90;;;;;;4997224;28;89301;-75
2022/01/11 09:50:49;;;;;;;31.83;19.38;;;4.30;99.90;;;;;;4996540;28;90492;-75
2022/01/11 09:53:15;;;;;;;35.47;21.13;;;4.40;99.90;;;;;;4994679;28;92250;-75
2022/01/11 09:55:41;;;;;;;31.88;19.25;;;4.50;99.90;;;;;;4997213;28;90077;-75
2022/01/11 09:58:07;;;;;;;34.20;20.55;;;4.60;99.90;;;;;;4997267;28;89430;-75
2022/01/11 10:00:33;;;;;;;35.75;20.50;;;4.60;99.90;;;;;;4995824;28;89602;-76
2022/01/11 10:02:59;;;;;;;32.67;20.90;;;4.60;99.90;;;;;;4996543;28;90174;-76
2022/01/11 10:05:25;;;;;;;29.90;18.52;;;4.80;99.90;;;;;;4996762;28;90033;-76
2022/01/11 10:07:51;;;;;;;33.05;19.98;;;4.90;99.90;;;;;;4995317;28;92096;-76
2022/01/11 10:10:23;;;;;;;28.98;18.23;;;4.90;99.90;;;;;;4996677;28;89227;-76
2022/01/11 10:12:51;;;;;;;28.27;17.52;;;5.00;99.90;;;;;;4996462;28;89732;-75
2022/01/11 10:15:32;;;;;;;28.08;16.02;;;5.00;99.90;;;;;;4996271;28;91458;-75
2022/01/11 10:17:57;;;;;;;25.58;16.15;;;5.20;99.90;;;;;;4995245;28;91851;-75
2022/01/11 10:20:25;;;;;;;25.33;16.08;;;5.30;99.90;;;;;;4996662;28;89241;-76
2022/01/11 10:23:01;;;;;;;29.30;16.63;;;5.30;99.90;;;;;;4996616;28;89336;-76
2022/01/11 10:25:30;;;;;;;25.25;15.68;;;5.30;99.90;;;;;;4996621;28;89267;-76
2022/01/11 10:27:58;;;;;;;24.20;15.65;;;5.40;99.90;;;;;;4996202;28;90411;-76
2022/01/11 10:30:25;;;;;;;23.58;14.88;;;5.40;99.90;;;;;;4996520;28;89583;-76
2022/01/11 10:32:56;;;;;;;26.15;15.75;;;5.60;99.90;;;;;;4996472;28;89637;-75
2022/01/11 10:35:25;;;;;;;24.33;15.30;;;5.60;99.90;;;;;;4995086;28;92550;-75
2022/01/11 10:37:54;;;;;;;31.05;15.15;;;5.70;99.90;;;;;;4996306;28;89716;-75
2022/01/11 10:40:34;;;;;;;27.55;15.93;;;5.70;99.90;;;;;;4995863;28;90979;-76
2022/01/11 10:43:04;;;;;;;25.38;15.45;;;5.70;99.90;;;;;;4996291;28;89875;-75
2022/01/11 10:45:33;;;;;;;20.10;14.23;;;5.70;99.90;;;;;;4996109;28;89404;-75
2022/01/11 10:48:03;;;;;;;25.10;15.18;;;6.00;99.90;;;;;;4996103;28;89307;-75
2022/01/11 10:50:36;;;;;;;25.90;15.05;;;6.10;99.90;;;;;;4995780;28;89372;-75
2022/01/11 10:53:10;;;;;;;20.73;14.02;;;6.20;99.90;;;;;;4996067;28;89161;-75
2022/01/11 10:55:36;;;;;;;23.70;14.80;;;6.00;99.90;;;;;;4996130;28;91377;-75
2022/01/11 10:58:09;;;;;;;23.90;14.85;;;6.10;99.90;;;;;;4995155;28;92536;-75
2022/01/11 11:00:37;;;;;;;20.17;13.30;;;6.10;99.90;;;;;;4996243;28;89515;-75
2022/01/11 11:03:17;;;;;;;23.75;14.60;;;6.10;99.90;;;;;;4994337;28;91628;-75
2022/01/11 11:05:54;;;;;;;23.15;15.32;;;6.20;99.90;;;;;;4995680;28;90703;-75
2022/01/11 11:08:25;;;;;;;23.55;14.73;;;6.20;99.90;;;;;;4995880;28;90648;-75
2022/01/11 11:11:01;;;;;;;21.38;14.13;;;6.10;99.90;;;;;;4994587;28;89281;-75
2022/01/11 11:13:30;;;;;;;24.58;15.02;;;6.10;99.90;;;;;;4997877;28;89721;-75
2022/01/11 11:16:20;;;;;;;23.08;14.85;;;6.10;99.90;;;;;;5055865;22;90052;-77
2022/01/11 11:18:59;;;;;;;22.92;14.60;;;6.20;99.90;;;;;;5042688;27;90196;-77
2022/01/11 11:21:32;;;;;;;20.52;13.68;;;6.30;99.90;;;;;;5038518;28;89259;-77
2022/01/11 11:24:02;;;;;;;19.00;13.35;;;6.30;99.90;;;;;;5037976;28;92009;-79
2022/01/11 11:26:31;;;;;;;23.00;14.43;;;6.60;99.90;;;;;;5018312;28;91932;-79
2022/01/11 11:28:57;;;;;;;20.90;13.98;;;6.70;99.90;;;;;;5020067;28;92889;-79
2022/01/11 11:31:24;;;;;;;18.48;12.82;;;6.60;99.90;;;;;;5019897;28;90257;-79
2022/01/11 11:33:51;;;;;;;17.92;13.23;;;6.60;99.90;;;;;;5020658;28;89709;-79
2022/01/11 11:36:18;;;;;;;19.40;12.93;;;6.60;99.90;;;;;;5019910;28;90454;-79
2022/01/11 11:39:11;;;;;;;19.63;12.45;;;6.60;99.90;;;;;;5018663;28;92790;-79
2022/01/11 11:41:41;;;;;;;18.20;12.35;;;6.80;99.90;;;;;;5000482;28;89488;-79
2022/01/11 11:44:18;;;;;;;15.48;11.07;;;6.90;99.90;;;;;;5019861;28;90217;-79
2022/01/11 11:46:53;;;;;;;16.38;11.25;;;7.10;99.90;;;;;;5017836;28;92032;-78
2022/01/11 11:49:44;;;;;;;19.00;11.73;;;7.00;99.90;;;;;;5006055;28;89089;-78
2022/01/11 11:52:16;;;;;;;19.02;11.18;;;6.90;99.90;;;;;;5012347;28;89248;-79
2022/01/11 11:54:55;;;;;;;18.20;10.98;;;6.90;99.90;;;;;;5008524;28;89711;-79
2022/01/11 11:57:22;;;;;;;18.30;11.07;;;6.80;99.90;;;;;;5008555;28;90446;-79
2022/01/11 11:59:56;;;;;;;16.55;10.98;;;6.90;99.90;;;;;;5009573;28;93463;-79
2022/01/11 12:02:33;;;;;;;17.63;11.35;;;6.90;99.90;;;;;;5015114;28;89259;-79
2022/01/11 12:04:59;;;;;;;18.08;10.43;;;6.90;99.90;;;;;;5009336;28;90266;-79
2022/01/11 12:07:38;;;;;;;20.88;12.07;;;6.90;99.90;;;;;;5006149;28;92970;-79
2022/01/11 12:10:06;;;;;;;18.92;11.38;;;6.90;99.90;;;;;;5000817;28;89901;-79
2022/01/11 12:12:44;;;;;;;20.08;12.82;;;7.00;99.90;;;;;;5000692;28;89353;-79
2022/01/11 12:15:21;;;;;;;28.20;14.13;;;7.10;99.90;;;;;;4998732;28;91599;-79
2022/01/11 12:17:48;;;;;;;26.75;14.25;;;7.20;99.90;;;;;;5000669;28;89337;-79
2022/01/11 12:20:50;;;;;;;18.02;11.27;;;7.30;99.90;;;;;;5005822;28;92611;-79
2022/01/11 12:23:35;;;;;;;14.07;9.35;;;7.10;99.90;;;;;;5019681;28;90121;-79
2022/01/11 12:26:37;;;;;;;11.35;8.40;;;7.20;99.90;;;;;;5019637;28;90048;-79
2022/01/11 12:29:03;;;;;;;15.20;10.10;;;7.10;99.90;;;;;;4960717;28;92927;-78
2022/01/11 12:31:35;;;;;;;13.68;9.05;;;7.20;99.90;;;;;;5004712;28;91820;-77
2022/01/11 12:34:02;;;;;;;13.90;8.60;;;7.10;99.90;;;;;;5019749;28;89604;-80
2022/01/11 12:37:03;;;;;;;18.88;10.27;;;6.90;99.90;;;;;;5017732;28;92697;-79
2022/01/11 12:39:32;;;;;;;13.10;8.75;;;6.90;99.90;;;;;;5017258;28;93192;-79
2022/01/11 12:41:59;;;;;;;15.95;8.23;;;6.80;99.90;;;;;;5017764;28;91457;-79
2022/01/11 12:47:07;;;;;;;12.68;8.43;;;6.40;99.90;;;;;;5009429;28;91730;-80
2022/01/11 12:49:34;;;;;;;16.65;9.43;;;6.30;99.90;;;;;;5007783;28;93147;-80
2022/01/11 12:52:10;;;;;;;13.80;8.43;;;6.20;99.90;;;;;;5019297;28;90001;-80
2022/01/11 12:54:47;;;;;;;10.18;7.28;;;6.20;99.90;;;;;;5013710;28;89085;-80
2022/01/11 12:57:20;;;;;;;9.43;6.68;;;6.20;99.90;;;;;;5007487;28;89185;-79
2022/01/11 12:59:53;;;;;;;11.05;6.97;;;6.10;99.90;;;;;;5002289;28;90269;-80
2022/01/11 13:02:24;;;;;;;10.75;6.53;;;6.10;99.90;;;;;;4998563;28;90222;-80
2022/01/11 13:04:51;;;;;;;8.80;5.90;;;6.00;99.90;;;;;;4997244;28;89719;-79
2022/01/11 13:07:25;;;;;;;8.75;5.40;;;6.00;99.90;;;;;;4999255;28;90145;-80
2022/01/11 13:10:21;;;;;;;6.97;4.93;;;6.00;99.90;;;;;;4997417;28;93053;-80
2022/01/11 13:12:52;;;;;;;6.30;5.53;;;6.10;99.90;;;;;;4999265;28;91317;-81
2022/01/11 13:15:32;;;;;;;6.40;4.13;;;6.00;99.90;;;;;;4998832;28;90538;-81
2022/01/11 13:18:10;;;;;;;5.45;4.07;;;6.00;99.90;;;;;;5002881;28;89895;-80
2022/01/11 13:20:42;;;;;;;6.28;4.57;;;6.00;99.90;;;;;;4999735;28;91221;-80
2022/01/11 13:25:43;;;;;;;9.90;5.57;;;6.00;99.90;;;;;;4998588;28;89158;-80
2022/01/11 13:28:10;;;;;;;6.35;4.88;;;5.90;99.90;;;;;;4997595;28;92917;-82
2022/01/11 13:30:37;;;;;;;5.72;3.95;;;5.80;99.90;;;;;;4997916;28;92777;-81
2022/01/11 13:33:03;;;;;;;6.50;4.10;;;5.90;99.90;;;;;;5000438;28;90334;-82
2022/01/11 13:35:28;;;;;;;5.50;4.50;;;5.80;99.90;;;;;;4998525;28;89495;-82
2022/01/11 13:37:55;;;;;;;7.50;5.15;;;5.80;99.90;;;;;;4999788;28;89651;-82
2022/01/11 13:40:25;;;;;;;6.10;4.63;;;5.90;99.90;;;;;;4997880;28;93002;-82
2022/01/11 13:43:08;;;;;;;5.95;4.68;;;6.00;99.90;;;;;;4999016;28;90720;-82
2022/01/11 13:45:39;;;;;;;5.35;4.45;;;6.00;99.90;;;;;;4998488;28;90316;-81
2022/01/11 13:48:14;;;;;;;6.65;5.70;;;6.00;99.90;;;;;;4999692;28;90002;-81
2022/01/11 13:50:55;;;;;;;7.32;5.50;;;5.80;99.90;;;;;;5000660;28;89270;-82
2022/01/11 13:53:25;;;;;;;7.40;5.32;;;5.80;99.90;;;;;;4998941;28;91507;-82
2022/01/11 13:55:53;;;;;;;6.00;4.85;;;5.90;99.90;;;;;;5000480;28;89226;-82
2022/01/11 13:58:23;;;;;;;6.95;5.25;;;5.90;99.90;;;;;;4999731;28;92294;-82
2022/01/11 14:00:48;;;;;;;11.38;6.43;;;5.80;99.90;;;;;;4998519;28;91893;-81
2022/01/11 14:03:18;;;;;;;9.30;7.13;;;5.80;99.90;;;;;;4999800;28;89801;-81
2022/01/11 14:05:44;;;;;;;9.55;7.05;;;5.70;99.90;;;;;;4997348;28;90318;-82
2022/01/11 14:08:27;;;;;;;10.00;7.72;;;5.60;99.90;;;;;;4998559;28;91818;-82
2022/01/11 14:11:05;;;;;;;16.80;11.00;;;5.60;99.90;;;;;;5000526;28;90248;-81
2022/01/11 14:13:31;;;;;;;7.85;5.72;;;5.50;99.90;;;;;;4999335;28;89581;-81
2022/01/11 14:15:57;;;;;;;12.82;9.10;;;5.50;99.90;;;;;;4997686;28;89245;-81
2022/01/11 14:18:26;;;;;;;12.57;10.25;;;5.50;99.90;;;;;;4998377;28;91629;-83
2022/01/11 14:21:04;;;;;;;13.00;9.88;;;5.40;99.90;;;;;;4998104;28;91559;-81
2022/01/11 14:23:32;;;;;;;6.68;5.30;;;5.40;99.90;;;;;;4998701;28;92039;-83
2022/01/11 14:25:57;;;;;;;20.00;14.27;;;5.30;99.90;;;;;;4998813;28;89334;-81
2022/01/11 14:28:26;;;;;;;8.52;6.18;;;5.30;99.90;;;;;;4996977;28;92564;-80
2022/01/11 14:30:58;;;;;;;11.55;7.13;;;5.30;99.90;;;;;;4995901;28;92823;-80
2022/01/11 14:33:26;;;;;;;12.65;8.02;;;5.30;99.90;;;;;;4997182;28;93395;-82
2022/01/11 14:36:20;;;;;;;10.38;6.43;;;5.30;99.90;;;;;;4997327;28;89368;-80
2022/01/11 14:39:06;;;;;;;7.38;5.60;;;5.30;99.90;;;;;;4998800;28;88996;-81
2022/01/11 14:41:48;;;;;;;8.35;5.78;;;5.20;99.90;;;;;;4997859;28;89304;-80
2022/01/11 14:44:20;;;;;;;6.85;5.40;;;5.20;99.90;;;;;;4998329;28;89534;-80
2022/01/11 14:47:00;;;;;;;8.10;4.75;;;5.20;99.90;;;;;;5000272;28;89182;-83
2022/01/11 14:49:37;;;;;;;6.85;4.78;;;5.10;99.90;;;;;;5003624;28;89218;-81
2022/01/11 14:52:08;;;;;;;6.78;4.93;;;5.10;99.90;;;;;;5006264;28;90586;-82
2022/01/11 14:54:35;;;;;;;7.35;5.25;;;5.10;99.90;;;;;;5012035;28;92555;-82
2022/01/11 14:57:03;;;;;;;7.18;5.55;;;5.00;99.90;;;;;;5011918;28;90618;-82
2022/01/11 14:59:34;;;;;;;7.97;5.85;;;4.90;99.90;;;;;;5012425;28;89890;-82
2022/01/11 15:02:04;;;;;;;9.02;6.70;;;4.90;99.90;;;;;;5010605;28;92948;-83
2022/01/11 15:04:31;;;;;;;7.55;5.97;;;4.90;99.90;;;;;;5013145;28;93199;-82
2022/01/11 15:07:03;;;;;;;8.15;5.75;;;4.90;99.90;;;;;;5007344;28;89173;-81
2022/01/11 15:09:38;;;;;;;8.07;5.25;;;4.80;99.90;;;;;;5010768;28;92820;-80
2022/01/11 15:12:16;;;;;;;6.55;4.97;;;4.80;99.90;;;;;;5009960;28;91408;-81
2022/01/11 15:14:42;;;;;;;6.93;5.22;;;4.80;99.90;;;;;;5009857;28;92912;-81
2022/01/11 15:17:10;;;;;;;7.55;5.72;;;4.70;99.90;;;;;;5011557;28;89321;-81
2022/01/11 15:19:36;;;;;;;9.20;5.90;;;4.70;99.90;;;;;;5011455;28;92395;-81
2022/01/11 15:22:03;;;;;;;7.63;5.38;;;4.70;99.90;;;;;;5009089;28;96064;-81
2022/01/11 15:24:30;;;;;;;8.15;5.10;;;4.60;99.90;;;;;;5002894;28;93355;-81
2022/01/11 15:26:56;;;;;;;6.50;5.32;;;4.60;99.90;;;;;;5009955;28;89256;-81
2022/01/11 15:29:28;;;;;;;7.68;5.25;;;4.50;99.90;;;;;;5007157;28;92688;-81
2022/01/11 15:31:55;;;;;;;7.68;5.70;;;4.50;99.90;;;;;;5003667;28;91512;-80
2022/01/11 15:34:22;;;;;;;7.03;4.97;;;4.50;99.90;;;;;;5003059;28;92104;-81
2022/01/11 15:36:49;;;;;;;11.23;6.90;;;4.50;99.90;;;;;;5005163;28;89497;-80
2022/01/11 15:39:14;;;;;;;7.95;5.90;;;4.40;99.90;;;;;;5006601;28;91171;-82
2022/01/11 15:41:40;;;;;;;8.10;6.15;;;4.40;99.90;;;;;;5001974;28;91876;-82
2022/01/11 15:44:10;;;;;;;10.52;6.68;;;4.40;99.90;;;;;;5000133;28;91207;-80
2022/01/11 15:46:39;;;;;;;12.82;7.35;;;4.30;99.90;;;;;;5001805;28;90435;-81
2022/01/11 15:49:05;;;;;;;14.75;7.32;;;4.30;99.90;;;;;;5001787;28;91664;-81
2022/01/11 15:51:31;;;;;;;14.35;7.63;;;4.30;99.90;;;;;;5001284;28;93219;-80
2022/01/11 15:53:59;;;;;;;11.63;7.45;;;4.30;99.90;;;;;;5001581;28;90274;-81
2022/01/11 15:56:25;;;;;;;11.70;7.85;;;4.20;99.90;;;;;;5000764;28;89201;-80
2022/01/11 15:58:51;;;;;;;12.30;8.38;;;4.20;99.90;;;;;;5000535;28;93069;-81
2022/01/11 16:01:18;;;;;;;12.95;7.95;;;4.20;99.90;;;;;;5000504;28;91525;-81
2022/01/11 16:03:44;;;;;;;11.65;8.23;;;4.20;99.90;;;;;;5000754;28;91383;-80
2022/01/11 16:06:10;;;;;;;12.93;7.65;;;4.20;99.90;;;;;;5000187;28;89394;-81
2022/01/11 16:08:36;;;;;;;10.02;7.03;;;4.20;99.90;;;;;;5000539;28;91735;-81
2022/01/11 16:11:02;;;;;;;10.50;7.90;;;4.20;99.90;;;;;;5001597;28;90345;-81
2022/01/11 16:13:28;;;;;;;10.52;8.05;;;4.10;99.90;;;;;;5000010;28;92371;-81
2022/01/11 16:15:53;;;;;;;10.52;7.00;;;4.10;99.90;;;;;;5000528;28;89614;-81
2022/01/11 16:18:19;;;;;;;15.50;9.45;;;4.10;99.90;;;;;;5002186;28;89199;-81
2022/01/11 16:20:45;;;;;;;12.07;8.15;;;4.10;99.90;;;;;;5002368;28;89433;-80
2022/01/11 16:23:11;;;;;;;10.65;7.40;;;4.10;99.90;;;;;;5001670;28;89165;-81
2022/01/11 16:25:36;;;;;;;11.93;8.20;;;4.10;99.90;;;;;;5000485;28;89015;-81
2022/01/11 16:28:03;;;;;;;9.68;6.95;;;4.00;99.90;;;;;;5001853;28;89007;-81
2022/01/11 16:30:39;;;;;;;11.13;7.22;;;4.00;99.90;;;;;;5001742;28;89600;-81
2022/01/11 16:33:07;;;;;;;10.68;6.90;;;4.00;99.90;;;;;;5000121;28;92855;-80
2022/01/11 16:35:35;;;;;;;8.35;6.03;;;4.00;99.90;;;;;;4999960;28;90235;-81
2022/01/11 16:38:02;;;;;;;14.07;6.43;;;4.00;99.90;;;;;;5000091;28;91817;-81
2022/01/11 16:42:56;;;;;;;9.30;6.78;;;4.00;99.90;;;;;;5001436;28;89530;-80
2022/01/11 16:45:23;;;;;;;12.70;7.35;;;4.00;99.90;;;;;;5000355;28;89669;-80
2022/01/11 16:47:49;;;;;;;9.48;7.13;;;3.90;99.90;;;;;;5000426;28;92853;-81
2022/01/11 16:50:15;;;;;;;12.10;8.18;;;3.90;99.90;;;;;;4999661;28;91981;-82
2022/01/11 16:52:41;;;;;;;9.18;7.18;;;3.90;99.90;;;;;;5000714;28;92770;-81
2022/01/11 16:55:08;;;;;;;10.75;7.50;;;3.90;99.90;;;;;;5014455;28;89138;-80
2022/01/11 16:57:34;;;;;;;9.02;6.43;;;3.90;99.90;;;;;;5021258;28;92523;-82
2022/01/11 16:59:59;;;;;;;8.88;6.82;;;3.90;99.90;;;;;;5017898;28;92488;-78
2022/01/11 17:02:25;;;;;;;8.77;6.90;;;3.90;99.90;;;;;;5014776;28;93712;-79
2022/01/11 17:04:51;;;;;;;9.80;6.93;;;3.90;99.90;;;;;;5019005;28;89239;-80
2022/01/11 17:07:17;;;;;;;9.35;6.45;;;3.90;99.90;;;;;;5019789;28;91944;-80
2022/01/11 17:09:44;;;;;;;8.15;6.22;;;3.90;99.90;;;;;;5019073;28;91439;-82
2022/01/11 17:12:10;;;;;;;9.25;6.10;;;3.90;99.90;;;;;;5019937;28;91724;-82
2022/01/11 17:14:36;;;;;;;9.35;5.85;;;3.80;99.90;;;;;;5060429;22;90273;-77
2022/01/11 17:17:02;;;;;;;8.75;6.50;;;3.80;99.90;;;;;;4965008;28;91907;-78
2022/01/11 17:19:27;;;;;;;10.80;6.60;;;3.80;99.90;;;;;;4983820;28;94411;-78
2022/01/11 17:21:56;;;;;;;8.18;6.28;;;3.80;99.90;;;;;;4988301;28;90120;-81
2022/01/11 17:24:21;;;;;;;9.88;6.55;;;3.80;99.90;;;;;;4977869;28;90087;-81
2022/01/11 17:26:47;;;;;;;9.88;6.05;;;3.80;99.90;;;;;;4985549;28;91303;-80
2022/01/11 17:29:14;;;;;;;8.75;6.10;;;3.80;99.90;;;;;;4996630;28;92694;-82
2022/01/11 17:31:46;;;;;;;8.57;5.78;;;3.80;99.90;;;;;;4980436;28;89149;-81
2022/01/11 17:34:11;;;;;;;7.35;5.35;;;3.70;99.90;;;;;;4998676;28;89228;-78
2022/01/11 17:36:37;;;;;;;7.30;5.38;;;3.80;99.90;;;;;;4997943;28;91900;-82
2022/01/11 17:39:03;;;;;;;6.50;5.03;;;3.70;99.90;;;;;;5003349;28;93118;-79
2022/01/11 17:41:30;;;;;;;6.63;5.47;;;3.80;99.90;;;;;;5007497;28;91208;-81
2022/01/11 17:44:00;;;;;;;7.22;5.22;;;3.80;99.90;;;;;;5001335;28;89489;-79
2022/01/11 17:46:30;;;;;;;6.88;5.03;;;3.80;99.90;;;;;;4999233;28;92613;-79
2022/01/11 17:48:56;;;;;;;8.23;5.72;;;3.70;99.90;;;;;;4983297;28;91263;-79
2022/01/11 17:51:21;;;;;;;8.38;5.85;;;3.70;99.90;;;;;;4999176;28;93170;-79
2022/01/11 17:53:47;;;;;;;7.30;5.20;;;3.70;99.90;;;;;;4995186;28;89301;-77
2022/01/11 17:56:13;;;;;;;8.93;6.15;;;3.70;99.90;;;;;;4995738;28;92024;-80
2022/01/11 17:58:39;;;;;;;8.82;6.40;;;3.70;99.90;;;;;;4995110;28;92828;-80